createdAt,value
2022-10-15T00:01:37.867Z,60.90
2022-10-15T00:04:05.745Z,60.00
2022-10-15T00:06:33.902Z,71.40
2022-10-15T00:09:01.802Z,73.30
2022-10-15T00:11:29.974Z,68.60
2022-10-15T00:14:00.200Z,68.50
2022-10-15T00:16:29.155Z,72.30
2022-10-15T00:18:58.384Z,57.70
2022-10-15T00:21:26.964Z,52.00
2022-10-15T00:23:55.348Z,55.80
2022-10-15T00:26:27.000Z,60.00
2022-10-15T00:28:59.395Z,61.00
2022-10-15T00:31:31.615Z,61.50
2022-10-15T00:34:01.574Z,66.10
2022-10-15T00:36:35.991Z,63.50
2022-10-15T00:39:05.965Z,52.80
2022-10-15T00:41:42.371Z,50.30
2022-10-15T00:44:22.319Z,46.40
2022-10-15T00:47:09.867Z,45.40
2022-10-15T00:49:42.015Z,42.60
2022-10-15T00:52:13.899Z,43.90
2022-10-15T00:54:45.897Z,44.60
2022-10-15T00:57:14.122Z,40.50
2022-10-15T00:59:46.249Z,41.60
2022-10-15T01:02:14.059Z,40.90
2022-10-15T01:04:42.313Z,36.60
2022-10-15T01:07:10.106Z,38.50
2022-10-15T01:09:38.774Z,36.90
2022-10-15T01:12:12.185Z,39.10
2022-10-15T01:15:01.176Z,38.00
2022-10-15T01:17:45.834Z,30.70
2022-10-15T01:20:22.646Z,29.80
2022-10-15T01:23:42.114Z,37.40
2022-10-15T01:26:27.912Z,32.70
2022-10-15T01:29:16.716Z,29.10
2022-10-15T01:31:58.316Z,29.60
2022-10-15T01:35:07.506Z,29.60
2022-10-15T01:38:08.640Z,27.00
2022-10-15T01:40:45.784Z,26.50
2022-10-15T01:43:20.100Z,26.60
2022-10-15T01:46:04.369Z,25.00
2022-10-15T01:48:34.450Z,25.00
2022-10-15T01:51:05.001Z,25.80
2022-10-15T01:53:34.454Z,26.00
2022-10-15T01:56:07.834Z,25.30
2022-10-15T01:58:40.442Z,26.70
2022-10-15T02:01:08.619Z,26.40
2022-10-15T02:03:48.504Z,26.40
2022-10-15T02:06:34.875Z,25.50
2022-10-15T02:09:27.559Z,27.20
2022-10-15T02:12:12.472Z,25.50
2022-10-15T02:15:11.091Z,26.00
2022-10-15T02:18:05.636Z,26.50
2022-10-15T02:20:50.820Z,26.70
2022-10-15T02:23:27.900Z,26.50
2022-10-15T02:25:56.345Z,26.30
2022-10-15T02:28:26.119Z,25.50
2022-10-15T02:30:54.586Z,26.60
2022-10-15T02:33:23.407Z,25.70
2022-10-15T02:35:52.302Z,27.90
2022-10-15T02:38:23.318Z,27.10
2022-10-15T02:40:53.323Z,27.70
2022-10-15T02:43:24.962Z,27.90
2022-10-15T02:45:52.851Z,28.70
2022-10-15T02:48:20.903Z,29.90
2022-10-15T02:50:48.762Z,29.70
2022-10-15T02:53:16.730Z,29.80
2022-10-15T02:55:46.080Z,30.90
2022-10-15T02:58:13.872Z,29.70
2022-10-15T03:00:42.048Z,32.20
2022-10-15T03:03:10.876Z,31.30
2022-10-15T03:05:38.937Z,29.40
2022-10-15T03:08:06.772Z,29.90
2022-10-15T03:10:34.522Z,31.60
2022-10-15T03:13:04.631Z,31.80
2022-10-15T03:15:32.655Z,32.10
2022-10-15T03:18:00.518Z,30.10
2022-10-15T03:20:28.229Z,30.20
2022-10-15T03:22:56.148Z,31.00
2022-10-15T03:25:24.016Z,30.30
2022-10-15T03:27:54.608Z,32.60
2022-10-15T03:30:22.365Z,31.70
2022-10-15T03:32:51.564Z,31.70
2022-10-15T03:35:19.393Z,31.30
2022-10-15T03:37:47.180Z,32.70
2022-10-15T03:40:14.937Z,30.20
2022-10-15T03:42:42.746Z,31.30
2022-10-15T03:45:10.857Z,31.30
2022-10-15T03:47:38.690Z,31.30
2022-10-15T03:50:06.641Z,29.90
2022-10-15T03:52:34.330Z,28.10
2022-10-15T03:55:02.109Z,28.00
2022-10-15T03:57:29.823Z,28.20
2022-10-15T03:59:57.687Z,29.10
2022-10-15T04:02:26.300Z,27.20
2022-10-15T04:04:54.867Z,28.10
2022-10-15T04:07:22.711Z,26.50
2022-10-15T04:09:52.072Z,26.90
2022-10-15T04:12:19.959Z,26.80
2022-10-15T04:14:47.853Z,27.70
2022-10-15T04:17:17.887Z,27.00
2022-10-15T04:19:45.836Z,26.90
2022-10-15T04:22:13.565Z,26.80
2022-10-15T04:24:41.437Z,26.80
2022-10-15T04:27:09.285Z,25.90
2022-10-15T04:29:37.066Z,24.40
2022-10-15T04:32:06.842Z,23.80
2022-10-15T04:34:34.610Z,22.70
2022-10-15T04:37:02.452Z,24.20
2022-10-15T04:39:31.705Z,21.60
2022-10-15T04:41:59.579Z,21.90
2022-10-15T04:44:27.614Z,23.00
2022-10-15T04:46:55.507Z,22.00
2022-10-15T04:49:23.312Z,22.80
2022-10-15T04:51:54.209Z,21.30
2022-10-15T04:54:22.104Z,21.60
2022-10-15T04:56:49.912Z,21.50
2022-10-15T04:59:18.066Z,21.60
2022-10-15T05:01:45.883Z,22.20
2022-10-15T05:04:13.849Z,23.60
2022-10-15T05:06:41.754Z,21.90
2022-10-15T05:09:09.529Z,21.70
2022-10-15T05:11:38.286Z,20.80
2022-10-15T05:14:06.750Z,21.80
2022-10-15T05:16:34.558Z,22.20
2022-10-15T05:19:05.926Z,21.90
2022-10-15T05:21:35.319Z,21.50
2022-10-15T05:24:06.424Z,22.40
2022-10-15T05:26:34.175Z,22.00
2022-10-15T05:29:02.368Z,22.30
2022-10-15T05:31:32.937Z,22.80
2022-10-15T05:34:07.609Z,26.70
2022-10-15T05:36:37.087Z,25.60
2022-10-15T05:39:10.391Z,26.00
2022-10-15T05:41:38.412Z,25.90
2022-10-15T05:44:06.377Z,22.90
2022-10-15T05:46:35.230Z,22.30
2022-10-15T05:49:03.743Z,20.90
2022-10-15T05:51:31.491Z,21.40
2022-10-15T05:53:59.763Z,21.00
2022-10-15T05:56:28.046Z,21.80
2022-10-15T05:58:56.248Z,20.30
2022-10-15T06:01:24.099Z,20.90
2022-10-15T06:03:51.935Z,19.90
2022-10-15T06:06:26.712Z,20.90
2022-10-15T06:08:55.435Z,20.70
2022-10-15T06:11:23.142Z,19.60
2022-10-15T06:13:54.005Z,19.70
2022-10-15T06:16:23.998Z,20.70
2022-10-15T06:18:53.710Z,21.60
2022-10-15T06:21:21.953Z,20.40
2022-10-15T06:23:49.877Z,19.70
2022-10-15T06:26:17.723Z,21.30
2022-10-15T06:28:45.535Z,20.00
2022-10-15T06:31:14.978Z,21.00
2022-10-15T06:34:09.507Z,21.20
2022-10-15T06:36:38.464Z,20.40
2022-10-15T06:39:14.265Z,21.90
2022-10-15T06:41:44.830Z,21.50
2022-10-15T06:44:12.959Z,20.40
2022-10-15T06:47:01.399Z,21.30
2022-10-15T06:49:29.242Z,22.00
2022-10-15T06:52:02.604Z,22.10
2022-10-15T06:54:31.608Z,22.50
2022-10-15T06:56:59.431Z,21.70
2022-10-15T06:59:38.588Z,22.80
2022-10-15T07:02:17.835Z,21.90
2022-10-15T07:04:47.451Z,25.30
2022-10-15T07:07:31.805Z,24.10
2022-10-15T07:10:02.457Z,24.40
2022-10-15T07:12:37.661Z,24.50
2022-10-15T07:15:12.611Z,24.60
2022-10-15T07:18:04.668Z,23.40
2022-10-15T07:20:32.827Z,23.60
2022-10-15T07:23:04.167Z,24.30
2022-10-15T07:25:37.923Z,25.00
2022-10-15T07:28:06.990Z,26.10
2022-10-15T07:30:36.218Z,26.40
2022-10-15T07:33:06.025Z,25.80
2022-10-15T07:35:40.852Z,25.50
2022-10-15T07:38:11.292Z,25.30
2022-10-15T07:40:43.284Z,25.90
2022-10-15T07:43:11.140Z,26.90
2022-10-15T07:45:41.630Z,26.00
2022-10-15T07:48:09.993Z,27.10
2022-10-15T07:50:40.465Z,27.40
2022-10-15T07:53:18.171Z,25.10
2022-10-15T07:55:49.409Z,24.00
2022-10-15T07:58:23.181Z,24.00
2022-10-15T08:00:51.470Z,23.60
2022-10-15T08:03:26.782Z,22.50
2022-10-15T08:06:02.716Z,22.50
2022-10-15T08:08:31.595Z,23.30
2022-10-15T08:11:05.370Z,22.70
2022-10-15T08:13:34.145Z,23.10
2022-10-15T08:16:02.584Z,21.70
2022-10-15T08:18:35.393Z,21.30
2022-10-15T08:21:09.634Z,21.20
2022-10-15T08:23:42.215Z,21.00
2022-10-15T08:29:03.231Z,21.40
2022-10-15T08:31:37.890Z,22.20
2022-10-15T08:34:08.492Z,21.10
2022-10-15T08:36:42.051Z,20.40
2022-10-15T08:39:26.371Z,20.70
2022-10-15T08:42:04.631Z,20.70
2022-10-15T08:44:44.511Z,22.20
2022-10-15T08:47:45.734Z,21.40
2022-10-15T09:10:52.091Z,23.70
2022-10-15T09:13:31.069Z,22.30
2022-10-15T09:16:30.582Z,22.90
2022-10-15T09:19:03.594Z,22.20
2022-10-15T09:21:31.895Z,20.70
2022-10-15T09:24:03.306Z,23.50
2022-10-15T09:27:05.221Z,21.70
2022-10-15T09:30:11.467Z,20.60
2022-10-15T09:33:04.203Z,21.80
2022-10-15T09:36:09.884Z,21.20
2022-10-15T09:39:12.974Z,23.20
2022-10-15T09:44:40.745Z,22.40
2022-10-15T09:47:37.660Z,21.60
2022-10-15T09:50:09.809Z,20.90
2022-10-15T09:53:01.917Z,21.00
2022-10-15T09:56:04.087Z,20.40
2022-10-15T09:59:05.812Z,19.70
2022-10-15T10:01:40.287Z,21.90
2022-10-15T10:04:21.435Z,20.50
2022-10-15T10:06:58.319Z,21.20
2022-10-15T10:09:34.999Z,20.50
2022-10-15T10:12:07.755Z,21.20
2022-10-15T10:14:55.287Z,20.90
2022-10-15T10:18:06.120Z,20.20
2022-10-15T10:20:33.872Z,22.30
2022-10-15T10:23:22.430Z,20.50
2022-10-15T10:25:58.160Z,21.00
2022-10-15T10:29:04.935Z,21.20
2022-10-15T10:31:42.185Z,20.60
2022-10-15T10:34:15.877Z,20.50
2022-10-15T10:36:44.179Z,20.40
2022-10-15T10:39:18.815Z,20.00
2022-10-15T10:41:56.156Z,20.40
2022-10-15T10:44:46.028Z,20.30
2022-10-15T10:47:25.204Z,20.50
2022-10-15T10:49:57.506Z,20.60
2022-10-15T10:52:36.566Z,19.90
2022-10-15T10:55:12.296Z,19.90
2022-10-15T10:57:48.997Z,20.70
2022-10-15T11:00:25.867Z,20.10
2022-10-15T11:02:52.705Z,20.20
2022-10-15T11:05:26.362Z,20.90
2022-10-15T11:08:22.539Z,20.00
2022-10-15T11:11:08.566Z,21.50
2022-10-15T11:13:55.264Z,22.00
2022-10-15T11:17:11.674Z,21.00
2022-10-15T11:20:12.187Z,23.00
2022-10-15T11:22:52.135Z,20.90
2022-10-15T11:25:53.229Z,22.00
2022-10-15T11:28:31.399Z,21.90
2022-10-15T11:31:25.194Z,20.60
2022-10-15T11:34:23.388Z,21.80
2022-10-15T11:37:26.418Z,20.90
2022-10-15T11:40:15.435Z,19.80
2022-10-15T11:42:57.410Z,18.60
2022-10-15T11:45:36.805Z,18.50
2022-10-15T11:48:25.479Z,17.00
2022-10-15T11:51:10.540Z,15.60
2022-10-15T11:53:53.197Z,16.30
2022-10-15T11:58:55.192Z,13.80
2022-10-15T12:01:25.050Z,13.60
2022-10-15T12:04:12.693Z,13.10
2022-10-15T12:06:46.380Z,12.60
2022-10-15T12:09:20.555Z,11.70
2022-10-15T12:12:00.775Z,12.50
2022-10-15T12:14:58.975Z,10.10
2022-10-15T12:18:22.508Z,10.80
2022-10-15T12:20:49.361Z,11.90
2022-10-15T12:23:41.161Z,11.80
2022-10-15T12:26:30.621Z,12.00
2022-10-15T12:29:04.118Z,13.40
2022-10-15T12:31:50.942Z,13.70
2022-10-15T12:34:39.229Z,14.30
2022-10-15T12:37:18.878Z,15.00
2022-10-15T12:39:54.843Z,15.50
2022-10-15T12:42:33.855Z,15.60
2022-10-15T12:45:04.269Z,16.00
2022-10-15T12:47:53.907Z,18.00
2022-10-15T12:50:31.844Z,16.60
2022-10-15T12:53:18.952Z,16.80
2022-10-15T12:56:14.541Z,16.20
2022-10-15T12:58:54.958Z,17.30
2022-10-15T13:01:21.788Z,16.10
2022-10-15T13:03:48.486Z,14.00
2022-10-15T13:06:32.726Z,15.40
2022-10-15T13:09:11.476Z,15.10
2022-10-15T13:14:42.246Z,14.70
2022-10-15T13:17:18.611Z,15.20
2022-10-15T13:20:07.531Z,14.60
2022-10-15T13:22:37.166Z,13.70
2022-10-15T13:25:16.132Z,14.90
2022-10-15T13:27:44.835Z,14.80
2022-10-15T13:30:16.939Z,15.20
2022-10-15T13:32:52.887Z,15.80
2022-10-15T13:35:29.150Z,15.40
2022-10-15T13:37:59.967Z,15.70
2022-10-15T13:40:29.565Z,16.80
2022-10-15T13:43:13.409Z,16.30
2022-10-15T13:45:46.447Z,16.80
2022-10-15T13:48:23.364Z,16.10
2022-10-15T13:50:52.935Z,16.80
2022-10-15T13:53:32.214Z,16.60
2022-10-15T13:56:03.254Z,17.50
2022-10-15T13:58:37.233Z,17.30
2022-10-15T14:01:18.194Z,16.40
2022-10-15T14:03:56.474Z,16.40
2022-10-15T14:06:32.399Z,16.50
2022-10-15T14:09:19.908Z,16.20
2022-10-15T14:11:47.763Z,16.20
2022-10-15T14:14:43.424Z,17.10
2022-10-15T14:17:30.012Z,16.00
2022-10-15T14:20:33.645Z,15.60
2022-10-15T14:22:53.657Z,15.50
2022-10-15T14:25:25.765Z,16.30
2022-10-15T14:27:53.856Z,16.30
2022-10-15T14:30:30.463Z,15.80
2022-10-15T14:32:57.363Z,17.30
2022-10-15T14:35:37.497Z,20.50
2022-10-15T14:38:16.248Z,19.70
2022-10-15T14:41:04.938Z,20.10
2022-10-15T14:43:36.598Z,19.30
2022-10-15T14:46:05.898Z,18.90
2022-10-15T14:48:38.380Z,17.40
2022-10-15T14:51:22.268Z,16.60
2022-10-15T14:53:51.172Z,17.20
2022-10-15T14:56:29.941Z,18.80
2022-10-15T14:58:57.390Z,19.30
2022-10-15T15:01:24.517Z,17.50
2022-10-15T15:03:56.209Z,15.40
2022-10-15T15:06:22.683Z,16.00
2022-10-15T15:08:49.351Z,15.80
2022-10-15T15:11:22.525Z,14.80
2022-10-15T15:13:52.253Z,16.00
2022-10-15T15:16:18.939Z,15.70
2022-10-15T15:18:47.794Z,13.90
2022-10-15T15:21:20.898Z,13.80
2022-10-15T15:23:47.828Z,12.60
2022-10-15T15:26:14.404Z,12.20
2022-10-15T15:28:40.975Z,13.20
2022-10-15T15:31:13.077Z,12.30
2022-10-15T15:33:40.709Z,11.80
2022-10-15T15:36:20.972Z,10.50
2022-10-15T15:38:50.621Z,9.50
2022-10-15T15:41:21.680Z,8.80
2022-10-15T15:43:48.957Z,7.90
2022-10-15T15:46:16.365Z,8.00
2022-10-15T15:48:43.143Z,6.70
2022-10-15T15:51:23.902Z,6.30
2022-10-15T15:54:00.238Z,6.40
2022-10-15T15:56:28.910Z,7.10
2022-10-15T15:58:58.090Z,7.80
2022-10-15T16:01:25.521Z,7.10
2022-10-15T16:03:53.364Z,7.30
2022-10-15T16:06:20.093Z,7.30
2022-10-15T16:08:52.788Z,6.40
2022-10-15T16:11:19.328Z,7.00
2022-10-15T16:13:46.073Z,7.00
2022-10-15T16:16:13.398Z,6.80
2022-10-15T16:18:40.136Z,6.80
2022-10-15T16:21:07.184Z,6.10
2022-10-15T16:23:34.162Z,6.30
2022-10-15T16:26:03.837Z,6.70
2022-10-15T16:28:30.742Z,6.40
2022-10-15T16:31:29.554Z,5.80
2022-10-15T16:33:58.858Z,6.70
2022-10-15T16:36:26.641Z,6.60
2022-10-15T16:38:54.408Z,6.50
2022-10-15T16:41:22.387Z,6.10
2022-10-15T16:43:52.695Z,6.80
2022-10-15T16:46:21.553Z,6.20
2022-10-15T16:48:55.287Z,6.60
2022-10-15T16:51:24.267Z,7.40
2022-10-15T16:53:52.476Z,7.50
2022-10-15T16:56:27.008Z,7.20
2022-10-15T16:58:56.380Z,7.30
2022-10-15T17:01:27.858Z,7.90
2022-10-15T17:03:57.574Z,7.10
2022-10-15T17:06:29.253Z,7.50
2022-10-15T17:09:00.022Z,8.40
2022-10-15T17:11:31.514Z,8.00
2022-10-15T17:14:03.914Z,8.30
2022-10-15T17:16:44.694Z,8.40
2022-10-15T17:19:14.845Z,9.20
2022-10-15T17:21:44.878Z,10.10
2022-10-15T17:24:16.604Z,10.30
2022-10-15T17:26:45.923Z,9.30
2022-10-15T17:29:21.560Z,9.80
2022-10-15T17:31:53.388Z,9.70
2022-10-15T17:34:21.764Z,8.90
2022-10-15T17:36:49.714Z,9.60
2022-10-15T17:39:20.445Z,10.00
2022-10-15T17:41:50.888Z,9.70
2022-10-15T17:44:18.730Z,10.50
2022-10-15T17:46:46.559Z,9.80
2022-10-15T17:49:18.572Z,10.70
2022-10-15T17:51:47.197Z,10.00
2022-10-15T17:54:15.026Z,10.30
2022-10-15T17:56:43.370Z,10.20
2022-10-15T17:59:12.107Z,10.70
2022-10-15T18:01:59.947Z,10.70
2022-10-15T18:04:29.805Z,12.20
2022-10-15T18:06:57.953Z,11.10
2022-10-15T18:09:27.463Z,11.30
2022-10-15T18:11:56.990Z,12.40
2022-10-15T18:14:24.921Z,10.40
2022-10-15T18:16:53.396Z,11.70
2022-10-15T18:19:21.389Z,16.50
2022-10-15T18:21:49.742Z,14.60
2022-10-15T18:24:21.915Z,12.50
2022-10-15T18:26:51.330Z,11.80
2022-10-15T18:29:21.274Z,11.60
2022-10-15T18:31:53.445Z,11.60
2022-10-15T18:34:24.407Z,12.00
2022-10-15T18:36:52.181Z,11.80
2022-10-15T18:39:20.013Z,11.30
2022-10-15T18:41:47.886Z,12.70
2022-10-15T18:44:17.789Z,13.90
2022-10-15T18:46:45.767Z,14.50
2022-10-15T18:49:16.838Z,14.10
2022-10-15T18:51:46.738Z,13.80
2022-10-15T18:54:14.558Z,14.50
2022-10-15T18:56:42.289Z,14.80
2022-10-15T18:59:10.181Z,16.00
2022-10-15T19:01:44.164Z,16.60
2022-10-15T19:04:15.614Z,17.10
2022-10-15T19:06:46.718Z,18.00
2022-10-15T19:09:24.534Z,17.90
2022-10-15T19:11:55.231Z,18.00
2022-10-15T19:14:25.747Z,18.40
2022-10-15T19:16:54.292Z,20.60
2022-10-15T19:19:23.995Z,20.70
2022-10-15T19:21:53.429Z,21.60
2022-10-15T19:24:22.934Z,21.10
2022-10-15T19:26:52.297Z,21.20
2022-10-15T19:29:20.609Z,20.70
2022-10-15T19:31:51.233Z,21.10
2022-10-15T19:34:18.994Z,20.50
2022-10-15T19:36:50.927Z,20.50
2022-10-15T19:39:22.380Z,20.30
2022-10-15T19:41:53.359Z,19.50
2022-10-15T19:44:26.149Z,21.00
2022-10-15T19:46:57.392Z,19.20
2022-10-15T19:49:25.724Z,19.40
2022-10-15T19:51:53.533Z,19.80
2022-10-15T19:54:22.027Z,19.80
2022-10-15T19:56:49.988Z,19.60
2022-10-15T19:59:20.377Z,19.00
2022-10-15T20:01:48.260Z,19.90
2022-10-15T20:04:18.413Z,21.20
2022-10-15T20:06:46.143Z,20.70
2022-10-15T20:09:13.852Z,21.70
2022-10-15T20:11:42.214Z,23.20
2022-10-15T20:14:10.227Z,22.60
2022-10-15T20:16:38.094Z,22.50
2022-10-15T20:19:06.282Z,23.30
2022-10-15T20:21:33.998Z,23.20
2022-10-15T20:24:05.284Z,23.80
2022-10-15T20:26:33.444Z,22.30
2022-10-15T20:29:01.520Z,22.70
2022-10-15T20:31:33.087Z,23.80
2022-10-15T20:34:02.864Z,21.50
2022-10-15T20:36:30.855Z,21.70
2022-10-15T20:39:00.797Z,22.20
2022-10-15T20:41:28.655Z,22.80
2022-10-15T20:43:57.079Z,22.60
2022-10-15T20:46:34.625Z,24.60
2022-10-15T20:49:14.356Z,25.00
2022-10-15T20:51:43.121Z,23.90
2022-10-15T20:54:12.971Z,24.60
2022-10-15T20:56:41.417Z,23.80
2022-10-15T20:59:09.244Z,25.30
2022-10-15T21:01:37.242Z,25.40
2022-10-15T21:04:06.000Z,23.80
2022-10-15T21:06:33.739Z,25.70
2022-10-15T21:09:01.707Z,25.70
2022-10-15T21:11:29.764Z,23.80
2022-10-15T21:14:00.345Z,24.10
2022-10-15T21:16:28.647Z,24.40
2022-10-15T21:18:56.642Z,24.10
2022-10-15T21:21:24.554Z,24.80
2022-10-15T21:23:52.398Z,25.90
2022-10-15T21:26:20.872Z,25.00
2022-10-15T21:28:48.738Z,24.40
2022-10-15T21:31:17.685Z,23.80
2022-10-15T21:33:46.269Z,24.80
2022-10-15T21:36:26.480Z,25.50
2022-10-15T21:39:00.870Z,24.50
2022-10-15T21:41:34.211Z,24.00
2022-10-15T21:44:03.134Z,22.10
2022-10-15T21:46:31.723Z,23.90
2022-10-15T21:49:01.512Z,23.40
2022-10-15T21:51:33.297Z,23.90
2022-10-15T21:54:02.880Z,24.10
2022-10-15T21:56:31.755Z,23.50
2022-10-15T21:59:00.036Z,24.60
2022-10-15T22:01:33.609Z,22.00
2022-10-15T22:04:09.327Z,23.20
2022-10-15T22:06:40.228Z,20.20
2022-10-15T22:09:10.122Z,22.40
2022-10-15T22:11:41.103Z,21.20
2022-10-15T22:14:12.528Z,22.20
2022-10-15T22:16:41.390Z,21.50
2022-10-15T22:19:11.542Z,22.60
2022-10-15T22:21:39.393Z,21.50
2022-10-15T22:24:14.065Z,23.40
2022-10-15T22:26:49.382Z,20.80
2022-10-15T22:29:26.303Z,20.50
2022-10-15T22:31:55.247Z,19.00
2022-10-15T22:34:24.040Z,19.90
2022-10-15T22:36:53.021Z,19.30
2022-10-15T22:39:20.828Z,18.90
2022-10-15T22:41:48.979Z,18.10
2022-10-15T22:44:19.888Z,18.20
2022-10-15T22:46:49.648Z,17.20
2022-10-15T22:49:20.729Z,17.60
2022-10-15T22:51:49.903Z,18.30
2022-10-15T22:54:20.768Z,18.20
2022-10-15T22:56:49.873Z,18.10
2022-10-15T22:59:18.326Z,17.40
2022-10-15T23:01:46.156Z,17.60
2022-10-15T23:04:15.557Z,17.10
2022-10-15T23:06:43.660Z,17.30
2022-10-15T23:09:17.677Z,17.50
2022-10-15T23:11:46.709Z,16.90
2022-10-15T23:14:16.996Z,16.80
2022-10-15T23:16:47.563Z,16.80
2022-10-15T23:19:21.755Z,16.90
2022-10-15T23:21:53.164Z,16.80
2022-10-15T23:24:27.255Z,15.80
2022-10-15T23:26:55.576Z,16.50
2022-10-15T23:29:25.869Z,16.50
2022-10-15T23:31:54.802Z,14.80
2022-10-15T23:34:25.897Z,15.30
2022-10-15T23:36:54.253Z,15.40
2022-10-15T23:39:25.682Z,15.70
2022-10-15T23:41:54.818Z,14.80
2022-10-15T23:44:25.741Z,15.50
2022-10-15T23:46:54.191Z,15.00
2022-10-15T23:49:21.926Z,15.20
2022-10-15T23:51:49.743Z,15.30
2022-10-15T23:54:19.015Z,14.40
2022-10-15T23:56:49.069Z,14.50
2022-10-15T23:59:22.342Z,15.70
